createdAt,value
2017-11-05T00:00:32.032Z,12.80
2017-11-05T00:01:34.760Z,12.80
2017-11-05T00:02:37.368Z,12.80
2017-11-05T00:03:39.856Z,12.80
2017-11-05T00:04:42.873Z,12.80
2017-11-05T00:05:45.387Z,12.80
2017-11-05T00:06:55.295Z,12.80
2017-11-05T00:07:59.853Z,12.80
2017-11-05T00:09:03.330Z,12.80
2017-11-05T00:10:07.446Z,12.70
2017-11-05T00:11:13.177Z,12.70
2017-11-05T00:12:15.668Z,12.70
2017-11-05T00:13:19.276Z,12.70
2017-11-05T00:14:22.872Z,12.70
2017-11-05T00:15:27.214Z,12.70
2017-11-05T00:16:30.660Z,12.70
2017-11-05T00:17:33.552Z,12.70
2017-11-05T00:18:37.051Z,12.60
2017-11-05T00:19:39.981Z,12.60
2017-11-05T00:20:44.628Z,12.60
2017-11-05T00:21:47.562Z,12.60
2017-11-05T00:22:54.666Z,12.60
2017-11-05T00:24:01.396Z,12.60
2017-11-05T00:25:04.416Z,12.60
2017-11-05T00:26:07.282Z,12.60
2017-11-05T00:27:09.793Z,12.60
2017-11-05T00:28:12.478Z,12.50
2017-11-05T00:29:18.704Z,12.50
2017-11-05T00:30:31.564Z,12.50
2017-11-05T00:31:34.116Z,12.50
2017-11-05T00:32:42.198Z,12.50
2017-11-05T00:33:57.521Z,12.50
2017-11-05T00:35:05.666Z,12.50
2017-11-05T00:36:10.264Z,12.50
2017-11-05T00:37:12.773Z,12.50
2017-11-05T00:38:16.165Z,12.50
2017-11-05T00:39:18.692Z,12.50
2017-11-05T00:40:21.450Z,12.50
2017-11-05T00:41:23.961Z,12.50
2017-11-05T00:42:27.504Z,12.50
2017-11-05T00:43:30.015Z,12.50
2017-11-05T00:44:33.525Z,12.50
2017-11-05T00:45:36.047Z,12.50
2017-11-05T00:46:38.706Z,12.50
2017-11-05T00:47:41.201Z,12.50
2017-11-05T00:48:45.054Z,12.50
2017-11-05T00:49:47.586Z,12.50
2017-11-05T00:50:50.788Z,12.50
2017-11-05T00:51:53.298Z,12.50
2017-11-05T00:52:55.951Z,12.50
2017-11-05T00:53:58.566Z,12.50
2017-11-05T00:55:01.299Z,12.50
2017-11-05T00:56:03.803Z,12.50
2017-11-05T00:57:06.353Z,12.50
2017-11-05T00:58:09.705Z,12.50
2017-11-05T00:59:12.380Z,12.50
2017-11-05T01:00:14.882Z,12.50
2017-11-05T01:01:17.654Z,12.50
2017-11-05T01:02:20.199Z,12.50
2017-11-05T01:03:23.547Z,12.50
2017-11-05T01:04:26.044Z,12.50
2017-11-05T01:05:28.610Z,12.50
2017-11-05T01:06:31.103Z,12.50
2017-11-05T01:07:33.706Z,12.40
2017-11-05T01:08:36.202Z,12.40
2017-11-05T01:09:38.952Z,12.40
2017-11-05T01:10:41.483Z,12.40
2017-11-05T01:11:45.225Z,12.40
2017-11-05T01:12:48.907Z,12.40
2017-11-05T01:13:51.556Z,12.40
2017-11-05T01:14:55.951Z,12.40
2017-11-05T01:15:58.699Z,12.40
2017-11-05T01:17:02.595Z,12.40
2017-11-05T01:18:06.175Z,12.40
2017-11-05T01:19:09.506Z,12.40
2017-11-05T01:20:12.092Z,12.40
2017-11-05T01:21:14.687Z,12.40
2017-11-05T01:22:18.257Z,12.40
2017-11-05T01:23:20.746Z,12.40
2017-11-05T01:24:23.965Z,12.40
2017-11-05T01:25:27.428Z,12.40
2017-11-05T01:26:30.982Z,12.40
2017-11-05T01:27:33.499Z,12.30
2017-11-05T01:28:36.250Z,12.40
2017-11-05T01:29:39.526Z,12.30
2017-11-05T01:30:42.868Z,12.30
2017-11-05T01:31:45.367Z,12.30
2017-11-05T01:32:47.862Z,12.30
2017-11-05T01:33:51.422Z,12.30
2017-11-05T01:34:54.774Z,12.30
2017-11-05T01:35:57.353Z,12.30
2017-11-05T01:36:59.985Z,12.30
2017-11-05T01:38:02.808Z,12.30
2017-11-05T01:39:05.334Z,12.30
2017-11-05T01:40:08.099Z,12.30
2017-11-05T01:41:10.617Z,12.30
2017-11-05T01:42:13.556Z,12.30
2017-11-05T01:43:16.088Z,12.20
2017-11-05T01:44:19.410Z,12.20
2017-11-05T01:45:21.927Z,12.20
2017-11-05T01:46:25.298Z,12.30
2017-11-05T01:47:27.786Z,12.30
2017-11-05T01:48:31.244Z,12.30
2017-11-05T01:49:33.857Z,12.20
2017-11-05T01:50:36.584Z,12.30
2017-11-05T01:51:39.089Z,12.20
2017-11-05T01:52:41.716Z,12.20
2017-11-05T01:53:44.201Z,12.30
2017-11-05T01:54:47.275Z,12.20
2017-11-05T01:55:49.793Z,12.20
2017-11-05T01:56:52.356Z,12.20
2017-11-05T01:57:54.864Z,12.20
2017-11-05T01:58:57.638Z,12.30
2017-11-05T02:00:00.144Z,12.20
2017-11-05T02:01:02.688Z,12.20
2017-11-05T02:02:06.024Z,12.20
2017-11-05T02:03:08.696Z,12.20
2017-11-05T02:04:11.213Z,12.20
2017-11-05T02:05:14.570Z,12.20
2017-11-05T02:06:17.056Z,12.20
2017-11-05T02:07:20.537Z,12.20
2017-11-05T02:08:23.007Z,12.20
2017-11-05T02:09:26.454Z,12.20
2017-11-05T02:10:28.975Z,12.20
2017-11-05T02:11:31.598Z,12.20
2017-11-05T02:12:34.092Z,12.20
2017-11-05T02:13:37.447Z,12.20
2017-11-05T02:14:39.949Z,12.20
2017-11-05T02:15:43.399Z,12.20
2017-11-05T02:16:46.148Z,12.20
2017-11-05T02:17:48.835Z,12.20
2017-11-05T02:18:51.535Z,12.20
2017-11-05T02:19:54.080Z,12.20
2017-11-05T02:20:56.575Z,12.10
2017-11-05T02:22:00.074Z,12.10
2017-11-05T02:23:03.487Z,12.10
2017-11-05T02:24:05.999Z,12.10
2017-11-05T02:25:08.479Z,12.10
2017-11-05T02:26:11.987Z,12.10
2017-11-05T02:27:14.472Z,12.10
2017-11-05T02:28:16.982Z,12.10
2017-11-05T02:29:19.492Z,12.10
2017-11-05T02:30:22.014Z,12.00
2017-11-05T02:31:24.501Z,12.00
2017-11-05T02:32:29.523Z,12.00
2017-11-05T02:33:32.805Z,12.00
2017-11-05T02:34:36.114Z,12.00
2017-11-05T02:35:39.507Z,12.00
2017-11-05T02:36:42.633Z,11.90
2017-11-05T02:39:18.196Z,11.90
2017-11-05T02:40:21.774Z,11.90
2017-11-05T02:41:24.999Z,11.90
2017-11-05T02:42:28.413Z,11.90
2017-11-05T02:43:31.478Z,11.90
2017-11-05T02:44:37.849Z,11.90
2017-11-05T02:45:40.781Z,11.90
2017-11-05T02:46:44.017Z,11.90
2017-11-05T02:47:48.928Z,11.90
2017-11-05T02:48:53.753Z,11.90
2017-11-05T02:50:00.287Z,11.90
2017-11-05T02:51:02.968Z,11.90
2017-11-05T02:52:06.467Z,11.90
2017-11-05T02:53:19.967Z,11.90
2017-11-05T02:54:22.679Z,11.80
2017-11-05T02:55:34.694Z,11.80
2017-11-05T02:56:37.206Z,11.80
2017-11-05T02:57:39.793Z,11.80
2017-11-05T02:58:43.055Z,11.80
2017-11-05T02:59:45.890Z,11.80
2017-11-05T03:00:48.609Z,11.80
2017-11-05T03:01:52.923Z,11.70
2017-11-05T03:02:56.173Z,11.70
2017-11-05T03:03:58.671Z,11.70
2017-11-05T03:05:02.108Z,11.70
2017-11-05T03:06:04.659Z,11.70
2017-11-05T03:07:07.225Z,11.70
2017-11-05T03:08:09.746Z,11.70
2017-11-05T03:09:12.290Z,11.70
2017-11-05T03:10:14.933Z,11.70
2017-11-05T03:11:17.425Z,11.60
2017-11-05T03:12:21.135Z,11.70
2017-11-05T03:13:23.671Z,11.60
2017-11-05T03:14:27.408Z,11.60
2017-11-05T03:15:29.911Z,11.60
2017-11-05T03:16:32.969Z,11.60
2017-11-05T03:17:36.265Z,11.50
2017-11-05T03:18:39.204Z,11.50
2017-11-05T03:19:41.969Z,11.50
2017-11-05T03:20:45.261Z,11.50
2017-11-05T03:21:49.052Z,11.50
2017-11-05T03:22:52.036Z,11.50
2017-11-05T03:23:56.559Z,11.50
2017-11-05T03:25:01.228Z,11.40
2017-11-05T03:26:05.300Z,11.40
2017-11-05T03:27:09.156Z,11.40
2017-11-05T03:28:13.269Z,11.40
2017-11-05T03:29:16.327Z,11.50
2017-11-05T03:30:20.912Z,11.50
2017-11-05T03:31:25.391Z,11.40
2017-11-05T03:32:27.942Z,11.40
2017-11-05T03:33:30.437Z,11.40
2017-11-05T03:34:33.009Z,11.40
2017-11-05T03:35:35.851Z,11.40
2017-11-05T03:36:40.816Z,11.40
2017-11-05T03:37:44.976Z,11.40
2017-11-05T03:38:47.834Z,11.40
2017-11-05T03:39:51.457Z,11.30
2017-11-05T03:40:55.603Z,11.30
2017-11-05T03:42:00.049Z,11.30
2017-11-05T03:43:02.563Z,11.30
2017-11-05T03:44:06.399Z,11.30
2017-11-05T03:45:08.902Z,11.30
2017-11-05T03:46:13.289Z,11.30
2017-11-05T03:47:16.868Z,11.30
2017-11-05T03:48:19.575Z,11.30
2017-11-05T03:49:23.936Z,11.30
2017-11-05T03:50:27.044Z,11.30
2017-11-05T03:51:29.573Z,11.30
2017-11-05T03:52:32.390Z,11.30
2017-11-05T03:53:35.693Z,11.30
2017-11-05T03:54:39.416Z,11.30
2017-11-05T03:55:46.338Z,11.30
2017-11-05T03:56:50.265Z,11.30
2017-11-05T03:57:52.810Z,11.30
2017-11-05T03:58:56.565Z,11.20
2017-11-05T03:59:59.082Z,11.20
2017-11-05T04:01:01.832Z,11.20
2017-11-05T04:02:05.148Z,11.20
2017-11-05T04:03:08.386Z,11.20
2017-11-05T04:04:10.883Z,11.30
2017-11-05T04:05:13.778Z,11.20
2017-11-05T04:06:16.276Z,11.20
2017-11-05T04:07:18.947Z,11.20
2017-11-05T04:08:21.467Z,11.20
2017-11-05T04:09:25.230Z,11.20
2017-11-05T04:10:28.498Z,11.20
2017-11-05T04:11:31.212Z,11.20
2017-11-05T04:12:37.913Z,11.20
2017-11-05T04:13:41.845Z,11.20
2017-11-05T04:14:45.554Z,11.20
2017-11-05T04:15:50.172Z,11.20
2017-11-05T04:16:52.718Z,11.20
2017-11-05T04:17:56.109Z,11.20
2017-11-05T04:18:59.461Z,11.20
2017-11-05T04:20:02.126Z,11.20
2017-11-05T04:21:12.293Z,11.20
2017-11-05T04:22:14.798Z,11.20
2017-11-05T04:23:17.532Z,11.20
2017-11-05T04:24:24.516Z,11.20
2017-11-05T04:25:27.979Z,11.20
2017-11-05T04:26:30.491Z,11.20
2017-11-05T04:27:33.620Z,11.20
2017-11-05T04:28:36.113Z,11.20
2017-11-05T04:29:39.603Z,11.10
2017-11-05T04:30:43.358Z,11.10
2017-11-05T04:31:46.147Z,11.10
2017-11-05T04:32:49.125Z,11.10
2017-11-05T04:33:51.974Z,11.10
2017-11-05T04:34:55.252Z,11.10
2017-11-05T04:35:58.102Z,11.10
2017-11-05T04:37:00.904Z,11.10
2017-11-05T04:38:03.935Z,11.10
2017-11-05T04:39:07.310Z,11.10
2017-11-05T04:40:09.998Z,11.10
2017-11-05T04:41:16.191Z,11.10
2017-11-05T04:42:19.012Z,11.10
2017-11-05T04:43:26.264Z,11.00
2017-11-05T04:44:30.708Z,11.00
2017-11-05T04:45:33.964Z,11.00
2017-11-05T04:46:37.012Z,11.00
2017-11-05T04:47:39.944Z,11.00
2017-11-05T04:48:43.290Z,11.00
2017-11-05T04:49:45.943Z,11.00
2017-11-05T04:50:48.646Z,11.00
2017-11-05T04:51:52.012Z,11.00
2017-11-05T04:52:54.521Z,11.00
2017-11-05T04:55:08.683Z,11.00
2017-11-05T04:56:16.175Z,11.00
2017-11-05T04:57:18.698Z,11.00
2017-11-05T04:58:23.514Z,11.00
2017-11-05T04:59:26.795Z,11.00
2017-11-05T05:00:30.257Z,11.00
2017-11-05T05:01:34.708Z,10.90
2017-11-05T05:02:38.265Z,11.00
2017-11-05T05:03:42.065Z,11.00
2017-11-05T05:04:45.750Z,11.00
2017-11-05T05:05:48.522Z,10.90
2017-11-05T05:06:51.794Z,10.90
2017-11-05T05:07:56.357Z,10.90
2017-11-05T05:09:02.485Z,11.00
2017-11-05T05:10:04.979Z,10.90
2017-11-05T05:11:08.399Z,10.90
2017-11-05T05:12:11.746Z,10.90
2017-11-05T05:13:19.160Z,10.90
2017-11-05T05:14:27.017Z,11.00
2017-11-05T05:15:31.307Z,10.90
2017-11-05T05:16:35.843Z,10.90
2017-11-05T05:17:40.518Z,10.90
2017-11-05T05:18:43.708Z,10.90
2017-11-05T05:19:46.514Z,10.90
2017-11-05T05:20:50.880Z,11.00
2017-11-05T05:21:59.573Z,11.00
2017-11-05T05:23:02.562Z,10.90
2017-11-05T05:24:06.886Z,11.00
2017-11-05T05:25:16.519Z,10.90
2017-11-05T05:26:19.074Z,10.90
2017-11-05T05:27:21.804Z,11.00
2017-11-05T05:28:24.297Z,11.00
2017-11-05T05:29:27.816Z,11.00
2017-11-05T05:30:31.090Z,11.00
2017-11-05T05:31:34.424Z,11.00
2017-11-05T05:32:38.099Z,11.00
2017-11-05T05:33:44.134Z,11.00
2017-11-05T05:34:48.351Z,11.00
2017-11-05T05:35:55.601Z,11.00
2017-11-05T05:36:59.241Z,10.90
2017-11-05T05:38:03.088Z,11.00
2017-11-05T05:39:05.722Z,11.00
2017-11-05T05:40:08.520Z,11.00
2017-11-05T05:41:17.419Z,11.00
2017-11-05T05:42:20.010Z,11.00
2017-11-05T05:43:22.530Z,11.00
2017-11-05T05:44:30.012Z,11.00
2017-11-05T05:45:37.282Z,11.00
2017-11-05T05:46:41.921Z,11.00
2017-11-05T05:47:44.571Z,11.00
2017-11-05T05:48:48.386Z,11.00
2017-11-05T05:49:50.882Z,11.00
2017-11-05T05:50:54.135Z,11.00
2017-11-05T05:51:58.086Z,10.90
2017-11-05T05:53:05.921Z,10.90
2017-11-05T05:54:10.553Z,10.90
2017-11-05T05:55:13.360Z,10.90
2017-11-05T05:56:15.858Z,10.90
2017-11-05T05:57:18.575Z,10.90
2017-11-05T05:58:29.639Z,10.90
2017-11-05T05:59:33.092Z,10.90
2017-11-05T06:00:35.804Z,10.80
2017-11-05T06:01:44.166Z,10.80
2017-11-05T06:02:46.679Z,10.80
2017-11-05T06:03:49.963Z,10.80
2017-11-05T06:04:52.812Z,10.80
2017-11-05T06:05:55.339Z,10.80
2017-11-05T06:07:01.239Z,10.80
2017-11-05T06:08:03.940Z,10.80
2017-11-05T06:09:11.920Z,10.80
2017-11-05T06:10:15.065Z,10.80
2017-11-05T06:11:17.874Z,10.80
2017-11-05T06:12:21.128Z,10.80
2017-11-05T06:13:23.800Z,10.70
2017-11-05T06:14:29.234Z,10.70
2017-11-05T06:15:39.214Z,10.70
2017-11-05T06:16:42.511Z,10.80
2017-11-05T06:17:56.716Z,10.70
2017-11-05T06:19:00.786Z,10.80
2017-11-05T06:20:03.495Z,10.70
2017-11-05T06:21:09.062Z,10.70
2017-11-05T06:22:12.741Z,10.70
2017-11-05T06:23:17.217Z,10.70
2017-11-05T06:24:21.884Z,10.70
2017-11-05T06:25:25.220Z,10.60
2017-11-05T06:26:29.620Z,10.70
2017-11-05T06:27:33.335Z,10.60
2017-11-05T06:28:35.924Z,10.60
2017-11-05T06:29:39.765Z,10.60
2017-11-05T06:30:42.618Z,10.50
2017-11-05T06:31:45.954Z,10.50
2017-11-05T06:32:49.245Z,10.60
2017-11-05T06:33:53.059Z,10.50
2017-11-05T06:34:56.539Z,10.50
2017-11-05T06:35:59.798Z,10.50
2017-11-05T06:37:02.578Z,10.50
2017-11-05T06:38:05.766Z,10.50
2017-11-05T06:39:08.475Z,10.50
2017-11-05T06:40:16.131Z,10.50
2017-11-05T06:41:19.261Z,10.50
2017-11-05T06:42:21.745Z,10.50
2017-11-05T06:43:24.658Z,10.40
2017-11-05T06:44:28.517Z,10.40
2017-11-05T06:45:31.254Z,10.40
2017-11-05T06:46:34.360Z,10.40
2017-11-05T06:47:43.463Z,10.40
2017-11-05T06:48:46.840Z,10.40
2017-11-05T06:49:49.331Z,10.40
2017-11-05T06:50:52.363Z,10.40
2017-11-05T06:51:54.856Z,10.40
2017-11-05T06:52:58.208Z,10.40
2017-11-05T06:54:01.577Z,10.40
2017-11-05T06:55:05.427Z,10.40
2017-11-05T06:56:08.537Z,10.40
2017-11-05T06:57:11.534Z,10.40
2017-11-05T06:58:14.283Z,10.40
2017-11-05T06:59:16.947Z,10.40
2017-11-05T07:00:19.494Z,10.40
2017-11-05T07:01:23.456Z,10.40
2017-11-05T07:02:26.068Z,10.40
2017-11-05T07:03:30.665Z,10.40
2017-11-05T07:04:33.683Z,10.40
2017-11-05T07:05:38.190Z,10.30
2017-11-05T07:06:41.885Z,10.30
2017-11-05T07:07:44.540Z,10.30
2017-11-05T07:08:47.111Z,10.30
2017-11-05T07:09:52.247Z,10.30
2017-11-05T07:10:55.363Z,10.30
2017-11-05T07:11:59.357Z,10.30
2017-11-05T07:13:02.430Z,10.30
2017-11-05T07:14:09.341Z,10.30
2017-11-05T07:15:12.624Z,10.30
2017-11-05T07:16:15.458Z,10.30
2017-11-05T07:17:19.885Z,10.30
2017-11-05T07:18:23.440Z,10.20
2017-11-05T07:19:25.939Z,10.30
2017-11-05T07:20:30.382Z,10.20
2017-11-05T07:21:37.058Z,10.20
2017-11-05T07:22:39.857Z,10.30
2017-11-05T07:23:42.856Z,10.30
2017-11-05T07:24:46.361Z,10.30
2017-11-05T07:25:50.722Z,10.30
2017-11-05T07:26:53.416Z,10.30
2017-11-05T07:27:55.935Z,10.30
2017-11-05T07:29:01.032Z,10.30
2017-11-05T07:30:05.564Z,10.30
2017-11-05T07:31:08.991Z,10.30
2017-11-05T07:32:12.204Z,10.30
2017-11-05T07:33:17.462Z,10.30
2017-11-05T07:34:20.110Z,10.30
2017-11-05T07:35:22.757Z,10.30
2017-11-05T07:36:27.896Z,10.30
2017-11-05T07:37:32.473Z,10.30
2017-11-05T07:38:34.950Z,10.30
2017-11-05T07:39:37.747Z,10.30
2017-11-05T07:40:40.266Z,10.30
2017-11-05T07:41:43.095Z,10.30
2017-11-05T07:42:46.341Z,10.20
2017-11-05T07:43:49.027Z,10.20
2017-11-05T07:44:53.610Z,10.30
2017-11-05T07:45:56.222Z,10.30
2017-11-05T07:46:59.402Z,10.30
2017-11-05T07:48:03.643Z,10.20
2017-11-05T07:49:07.524Z,10.20
2017-11-05T07:50:11.209Z,10.20
2017-11-05T07:51:14.820Z,10.10
2017-11-05T07:52:18.356Z,10.10
2017-11-05T07:53:23.028Z,10.10
2017-11-05T07:54:26.791Z,10.00
2017-11-05T07:55:30.763Z,9.90
2017-11-05T07:56:33.638Z,9.90
2017-11-05T07:57:40.335Z,9.90
2017-11-05T07:58:45.674Z,9.70
2017-11-05T07:59:49.901Z,9.70
2017-11-05T08:00:52.634Z,9.70
2017-11-05T08:01:56.008Z,9.60
2017-11-05T08:02:59.129Z,9.70
2017-11-05T08:04:03.007Z,9.60
2017-11-05T08:05:06.349Z,9.60
2017-11-05T08:06:08.851Z,9.60
2017-11-05T08:07:14.136Z,9.60
2017-11-05T08:08:16.636Z,9.50
2017-11-05T08:09:20.418Z,9.50
2017-11-05T08:10:22.942Z,9.50
2017-11-05T08:11:26.531Z,9.60
2017-11-05T08:12:29.057Z,9.60
2017-11-05T08:13:32.949Z,9.50
2017-11-05T08:14:35.804Z,9.50
2017-11-05T08:15:39.336Z,9.60
2017-11-05T08:16:43.497Z,9.60
2017-11-05T08:17:46.803Z,9.60
2017-11-05T08:18:50.083Z,9.60
2017-11-05T08:19:52.734Z,9.50
2017-11-05T08:20:55.478Z,9.60
2017-11-05T08:21:59.021Z,9.60
2017-11-05T08:23:01.743Z,9.50
2017-11-05T08:24:04.291Z,9.60
2017-11-05T08:25:07.523Z,9.60
2017-11-05T08:26:10.888Z,9.60
2017-11-05T08:27:18.042Z,9.60
2017-11-05T08:28:20.864Z,9.60
2017-11-05T08:29:24.131Z,9.60
2017-11-05T08:30:27.413Z,9.50
2017-11-05T08:31:30.227Z,9.60
2017-11-05T08:32:33.740Z,9.50
2017-11-05T08:33:36.230Z,9.50
2017-11-05T08:34:39.965Z,9.50
2017-11-05T08:35:43.245Z,9.50
2017-11-05T08:36:46.536Z,9.50
2017-11-05T08:37:54.197Z,9.50
2017-11-05T08:38:58.817Z,9.50
2017-11-05T08:40:02.707Z,9.40
2017-11-05T08:41:05.387Z,9.40
2017-11-05T08:42:08.673Z,9.40
2017-11-05T08:43:13.447Z,9.40
2017-11-05T08:44:16.665Z,9.30
2017-11-05T08:45:21.935Z,9.30
2017-11-05T08:46:25.684Z,9.30
2017-11-05T08:47:28.167Z,9.30
2017-11-05T08:48:31.254Z,9.30
2017-11-05T08:49:39.111Z,9.30
2017-11-05T08:51:55.081Z,9.30
2017-11-05T08:52:59.371Z,9.30
2017-11-05T08:54:02.072Z,9.30
2017-11-05T08:55:06.802Z,9.30
2017-11-05T08:56:11.791Z,9.40
2017-11-05T08:57:14.351Z,9.40
2017-11-05T08:58:16.817Z,9.50
2017-11-05T08:59:19.332Z,9.50
2017-11-05T09:00:21.831Z,9.60
2017-11-05T09:01:25.287Z,9.60
2017-11-05T09:02:28.335Z,9.60
2017-11-05T09:03:30.932Z,9.60
2017-11-05T09:04:35.705Z,9.60
2017-11-05T09:05:38.404Z,9.70
2017-11-05T09:06:42.243Z,9.70
2017-11-05T09:07:45.586Z,9.70
2017-11-05T09:08:49.494Z,9.70
2017-11-05T09:09:52.225Z,9.70
2017-11-05T09:10:55.706Z,9.70
2017-11-05T09:11:58.424Z,9.70
2017-11-05T09:13:00.907Z,9.70
2017-11-05T09:14:04.835Z,9.70
2017-11-05T09:15:08.975Z,9.80
2017-11-05T09:16:13.204Z,9.80
2017-11-05T09:17:16.270Z,9.80
2017-11-05T09:18:18.756Z,9.90
2017-11-05T09:19:21.364Z,9.90
2017-11-05T09:20:25.747Z,9.90
2017-11-05T09:21:29.063Z,10.00
2017-11-05T09:22:31.630Z,10.00
2017-11-05T09:23:34.617Z,10.00
2017-11-05T09:24:37.533Z,10.00
2017-11-05T09:25:40.759Z,10.00
2017-11-05T09:26:43.660Z,9.90
2017-11-05T09:27:46.969Z,9.90
2017-11-05T09:28:50.587Z,9.90
2017-11-05T09:29:55.052Z,9.90
2017-11-05T09:30:57.596Z,9.90
2017-11-05T09:32:01.226Z,9.90
2017-11-05T09:33:05.686Z,9.90
2017-11-05T09:34:08.224Z,9.90
2017-11-05T09:35:11.557Z,9.90
2017-11-05T09:36:14.595Z,9.90
2017-11-05T09:37:18.980Z,9.90
2017-11-05T09:38:22.690Z,9.90
2017-11-05T09:39:25.362Z,9.90
2017-11-05T09:40:28.334Z,9.90
2017-11-05T09:41:36.590Z,9.90
2017-11-05T09:42:39.120Z,9.90
2017-11-05T09:43:49.804Z,9.90
2017-11-05T09:44:52.527Z,9.90
2017-11-05T09:46:57.831Z,9.90
2017-11-05T09:48:00.555Z,9.90
2017-11-05T09:49:04.648Z,10.00
2017-11-05T09:50:12.508Z,10.00
2017-11-05T09:51:15.007Z,10.00
2017-11-05T09:52:19.039Z,10.00
2017-11-05T09:53:27.598Z,10.00
2017-11-05T09:54:30.967Z,10.00
2017-11-05T09:55:37.924Z,10.00
2017-11-05T09:56:40.959Z,10.10
2017-11-05T09:57:44.258Z,10.00
2017-11-05T09:58:47.032Z,10.10
2017-11-05T09:59:49.565Z,10.10
2017-11-05T10:00:52.856Z,10.00
2017-11-05T10:01:56.134Z,10.00
2017-11-05T10:02:59.617Z,10.00
2017-11-05T10:04:03.722Z,10.00
2017-11-05T10:05:07.277Z,10.00
2017-11-05T10:06:10.208Z,10.00
2017-11-05T10:07:14.056Z,10.00
2017-11-05T10:08:18.807Z,10.00
2017-11-05T10:09:22.094Z,10.00
2017-11-05T10:10:26.819Z,10.00
2017-11-05T10:11:30.847Z,10.10
2017-11-05T10:12:40.363Z,10.00
2017-11-05T10:13:42.882Z,10.10
2017-11-05T10:14:46.393Z,10.10
2017-11-05T10:15:49.669Z,10.10
2017-11-05T10:16:53.071Z,10.10
2017-11-05T10:17:57.575Z,10.20
2017-11-05T10:19:01.835Z,10.20
2017-11-05T10:20:08.633Z,10.10
2017-11-05T10:21:11.261Z,10.20
2017-11-05T10:22:13.899Z,10.20
2017-11-05T10:23:18.349Z,10.10
2017-11-05T10:24:21.472Z,10.10
2017-11-05T10:25:24.476Z,10.10
2017-11-05T10:26:28.241Z,10.10
2017-11-05T10:27:31.589Z,10.10
2017-11-05T10:28:34.507Z,10.10
2017-11-05T10:29:37.317Z,10.10
2017-11-05T10:30:39.830Z,10.20
2017-11-05T10:31:46.442Z,10.20
2017-11-05T10:32:49.543Z,10.20
2017-11-05T10:33:52.870Z,10.20
2017-11-05T10:34:57.373Z,10.20
2017-11-05T10:36:10.895Z,10.20
2017-11-05T10:37:13.446Z,10.30
2017-11-05T10:38:16.127Z,10.30
2017-11-05T10:39:19.888Z,10.40
2017-11-05T10:40:29.204Z,10.40
2017-11-05T10:41:31.730Z,10.40
2017-11-05T10:42:34.972Z,10.50
2017-11-05T10:43:37.482Z,10.50
2017-11-05T10:44:43.454Z,10.60
2017-11-05T10:45:45.935Z,10.60
2017-11-05T10:46:48.578Z,10.60
2017-11-05T10:47:53.027Z,10.70
2017-11-05T10:48:55.556Z,10.70
2017-11-05T10:49:59.100Z,10.90
2017-11-05T10:51:01.665Z,10.90
2017-11-05T10:52:04.303Z,10.90
2017-11-05T10:53:06.820Z,11.00
2017-11-05T10:54:14.691Z,11.00
2017-11-05T10:55:17.199Z,11.00
2017-11-05T10:56:20.818Z,11.10
2017-11-05T10:57:24.516Z,11.10
2017-11-05T10:58:28.163Z,11.10
2017-11-05T10:59:32.289Z,11.10
2017-11-05T11:00:35.749Z,11.30
2017-11-05T11:01:38.820Z,11.20
2017-11-05T11:02:42.972Z,11.30
2017-11-05T11:03:45.512Z,11.30
2017-11-05T11:04:49.843Z,11.40
2017-11-05T11:05:52.409Z,11.30
2017-11-05T11:06:56.720Z,11.40
2017-11-05T11:07:59.271Z,11.40
2017-11-05T11:09:05.643Z,11.40
2017-11-05T11:10:08.312Z,11.40
2017-11-05T11:11:12.080Z,11.40
2017-11-05T11:12:15.409Z,11.50
2017-11-05T11:13:19.148Z,11.50
2017-11-05T11:14:21.845Z,11.50
2017-11-05T11:15:25.565Z,11.40
2017-11-05T11:16:28.095Z,11.50
2017-11-05T11:17:31.970Z,11.60
2017-11-05T11:18:35.948Z,11.60
2017-11-05T11:19:38.985Z,11.60
2017-11-05T11:20:42.173Z,11.70
2017-11-05T11:21:44.805Z,11.60
2017-11-05T11:22:49.096Z,11.50
2017-11-05T11:23:51.753Z,11.60
2017-11-05T11:29:10.578Z,18.00
2017-11-05T11:30:13.954Z,16.70
2017-11-05T11:31:19.649Z,15.70
2017-11-05T11:32:22.478Z,15.60
2017-11-05T11:33:26.454Z,14.00
2017-11-05T11:34:29.748Z,13.60
2017-11-05T11:35:33.036Z,13.20
2017-11-05T11:36:38.672Z,12.80
2017-11-05T11:37:42.053Z,12.40
2017-11-05T11:38:46.482Z,12.40
2017-11-05T11:39:49.220Z,12.20
2017-11-05T11:40:52.310Z,12.10
2017-11-05T11:41:55.789Z,11.80
2017-11-05T11:42:58.284Z,11.80
2017-11-05T11:44:02.472Z,11.70
2017-11-05T11:45:06.965Z,11.60
2017-11-05T11:46:09.525Z,11.50
2017-11-05T11:47:12.052Z,11.50
2017-11-05T11:48:16.830Z,11.50
2017-11-05T11:49:19.769Z,11.40
2017-11-05T11:50:23.569Z,11.40
2017-11-05T11:51:26.063Z,11.50
2017-11-05T11:52:28.932Z,11.50
2017-11-05T11:53:33.295Z,11.50
2017-11-05T11:54:40.769Z,11.50
2017-11-05T11:55:43.292Z,11.60
2017-11-05T11:56:48.770Z,11.60
2017-11-05T11:57:55.318Z,11.60
2017-11-05T11:59:00.289Z,11.60
2017-11-05T12:00:03.874Z,11.60
2017-11-05T12:01:06.867Z,11.60
2017-11-05T12:02:09.437Z,11.60
2017-11-05T12:03:12.052Z,11.60
2017-11-05T12:04:14.585Z,11.60
2017-11-05T12:05:19.254Z,11.50
2017-11-05T12:06:21.813Z,11.60
2017-11-05T12:07:25.747Z,11.60
2017-11-05T12:08:29.309Z,11.60
2017-11-05T12:09:32.071Z,11.60
2017-11-05T12:10:34.665Z,11.60
2017-11-05T12:11:37.911Z,11.60
2017-11-05T12:12:41.266Z,11.60
2017-11-05T12:13:44.695Z,11.60
2017-11-05T12:14:52.516Z,11.60
2017-11-05T12:15:56.480Z,11.60
2017-11-05T12:17:00.247Z,11.70
2017-11-05T12:18:07.202Z,11.70
2017-11-05T12:19:14.523Z,11.70
2017-11-05T12:20:17.828Z,11.70
2017-11-05T12:21:21.598Z,11.70
2017-11-05T12:22:26.213Z,11.70
2017-11-05T12:23:35.149Z,11.60
2017-11-05T12:24:38.830Z,11.60
2017-11-05T12:25:50.160Z,11.60
2017-11-05T12:26:56.321Z,11.60
2017-11-05T12:28:00.554Z,11.60
2017-11-05T12:29:04.142Z,11.60
2017-11-05T12:30:07.460Z,11.70
2017-11-05T12:31:11.646Z,11.70
2017-11-05T12:32:15.415Z,11.70
2017-11-05T12:33:19.392Z,11.70
2017-11-05T12:34:25.810Z,11.70
2017-11-05T12:35:30.107Z,11.60
2017-11-05T12:36:34.638Z,11.80
2017-11-05T12:37:37.681Z,11.80
2017-11-05T12:38:40.501Z,11.80
2017-11-05T12:39:43.295Z,11.80
2017-11-05T12:40:45.833Z,11.70
2017-11-05T12:41:48.981Z,11.70
2017-11-05T12:42:52.062Z,11.70
2017-11-05T12:43:58.738Z,11.80
2017-11-05T12:45:10.197Z,11.80
2017-11-05T12:46:12.728Z,11.80
2017-11-05T12:47:15.838Z,11.70
2017-11-05T12:48:18.576Z,11.70
2017-11-05T12:49:27.294Z,11.80
2017-11-05T12:50:30.568Z,11.80
2017-11-05T12:51:33.593Z,11.70
2017-11-05T12:52:36.272Z,11.80
2017-11-05T12:53:41.692Z,11.80
2017-11-05T12:54:48.469Z,11.80
2017-11-05T12:55:55.569Z,11.80
2017-11-05T12:56:59.027Z,11.70
2017-11-05T12:58:01.879Z,11.70
2017-11-05T12:59:05.325Z,11.70
2017-11-05T13:00:08.097Z,11.60
2017-11-05T13:01:12.411Z,11.70
2017-11-05T13:02:15.454Z,11.80
2017-11-05T13:03:20.006Z,11.80
2017-11-05T13:04:22.869Z,11.80
2017-11-05T13:05:26.125Z,11.80
2017-11-05T13:06:30.595Z,11.70
2017-11-05T13:07:34.009Z,11.80
2017-11-05T13:08:37.007Z,11.80
2017-11-05T13:09:41.691Z,11.80
2017-11-05T13:10:45.290Z,11.80
2017-11-05T13:11:47.817Z,11.80
2017-11-05T13:12:55.852Z,11.80
2017-11-05T13:13:59.687Z,11.80
2017-11-05T13:15:02.838Z,11.80
2017-11-05T13:16:05.395Z,11.70
2017-11-05T13:17:08.332Z,11.80
2017-11-05T13:18:11.736Z,11.80
2017-11-05T13:19:16.087Z,11.90
2017-11-05T13:20:18.651Z,11.90
2017-11-05T13:21:22.304Z,11.90
2017-11-05T13:22:25.588Z,11.90
2017-11-05T13:23:31.437Z,11.90
2017-11-05T13:24:35.356Z,11.90
2017-11-05T13:25:38.189Z,11.90
2017-11-05T13:26:42.238Z,11.90
2017-11-05T13:27:57.945Z,11.80
2017-11-05T13:29:01.188Z,11.80
2017-11-05T13:30:10.743Z,11.90
2017-11-05T13:31:13.431Z,11.90
2017-11-05T13:32:16.140Z,12.00
2017-11-05T13:33:19.449Z,11.90
2017-11-05T13:34:22.060Z,11.90
2017-11-05T13:35:24.747Z,12.00
2017-11-05T13:36:29.720Z,12.00
2017-11-05T13:37:33.358Z,12.00
2017-11-05T13:38:41.938Z,12.00
2017-11-05T13:39:46.234Z,12.00
2017-11-05T13:40:48.989Z,12.00
2017-11-05T13:41:53.593Z,12.00
2017-11-05T13:43:03.508Z,12.00
2017-11-05T13:44:06.776Z,12.00
2017-11-05T13:45:09.512Z,12.00
2017-11-05T13:46:12.055Z,12.00
2017-11-05T13:47:16.590Z,12.00
2017-11-05T13:48:19.373Z,12.00
2017-11-05T13:49:22.215Z,12.00
2017-11-05T13:50:24.737Z,12.00
2017-11-05T13:51:28.997Z,11.90
2017-11-05T13:52:34.260Z,11.90
2017-11-05T13:53:37.689Z,11.90